createdAt,value
2023-02-24T00:01:02.777Z,101419.25
2023-02-24T00:06:14.863Z,101398.81
2023-02-24T00:08:47.952Z,101408.75
2023-02-24T00:18:19.968Z,101394.13
2023-02-24T00:20:46.534Z,101407.53
2023-02-24T00:23:18.691Z,101411.69
2023-02-24T00:25:45.650Z,101407.81
2023-02-24T00:28:19.649Z,101414.28
2023-02-24T00:30:50.379Z,101408.75
2023-02-24T00:33:35.487Z,101412.09
2023-02-24T00:36:14.687Z,101406.56
2023-02-24T00:38:47.349Z,101402.53
2023-02-24T00:41:55.527Z,101389.69
2023-02-24T00:44:24.504Z,101392.19
2023-02-24T00:46:51.731Z,101380.06
2023-02-24T00:49:24.534Z,101377.44
2023-02-24T00:51:54.715Z,101372.31
2023-02-24T00:54:25.029Z,101375.88
2023-02-24T00:56:52.184Z,101371.63
2023-02-24T00:59:18.976Z,101369.81
2023-02-24T01:01:49.546Z,101366.38
2023-02-24T01:04:44.662Z,101373.28
2023-02-24T01:07:15.191Z,101372.31
2023-02-24T01:09:43.010Z,101369.00
2023-02-24T01:13:04.534Z,101370.66
2023-02-24T01:15:31.034Z,101361.66
2023-02-24T01:17:57.555Z,101378.38
2023-02-24T01:20:24.389Z,101378.22
2023-02-24T01:22:59.949Z,101384.19
2023-02-24T01:25:27.220Z,101386.94
2023-02-24T01:27:54.207Z,101374.53
2023-02-24T01:30:47.377Z,101384.75
2023-02-24T01:33:17.165Z,101384.19
2023-02-24T01:35:43.854Z,101394.25
2023-02-24T01:38:37.080Z,101391.19
2023-02-24T01:41:06.816Z,101384.00
2023-02-24T01:43:34.041Z,101386.03
2023-02-24T01:46:13.877Z,101385.44
2023-02-24T01:48:43.722Z,101386.06
2023-02-24T01:51:22.430Z,101385.59
2023-02-24T01:53:51.579Z,101385.94
2023-02-24T01:56:18.421Z,101383.16
2023-02-24T01:58:45.050Z,101375.44
2023-02-24T02:01:14.430Z,101375.03
2023-02-24T02:03:44.020Z,101363.06
2023-02-24T02:06:14.709Z,101357.34
2023-02-24T02:08:48.801Z,101350.03
2023-02-24T02:11:23.053Z,101343.97
2023-02-24T02:13:56.488Z,101339.09
2023-02-24T02:16:40.181Z,101337.16
2023-02-24T02:19:51.659Z,101349.34
2023-02-24T02:22:47.435Z,101336.84
2023-02-24T02:25:21.121Z,101344.88
2023-02-24T02:28:32.072Z,101337.47
2023-02-24T02:31:34.825Z,101330.28
2023-02-24T02:34:08.192Z,101324.66
2023-02-24T02:36:52.724Z,101319.38
2023-02-24T02:39:48.517Z,101313.34
2023-02-24T02:42:43.577Z,101313.59
2023-02-24T02:45:18.083Z,101310.28
2023-02-24T02:47:56.135Z,101302.44
2023-02-24T02:50:59.134Z,101303.88
2023-02-24T02:53:57.496Z,101292.56
2023-02-24T02:57:10.153Z,101274.50
2023-02-24T03:00:01.481Z,101244.19
2023-02-24T03:02:38.360Z,101271.81
2023-02-24T03:05:25.077Z,101255.47
2023-02-24T03:07:56.931Z,101261.66
2023-02-24T03:10:28.126Z,101263.22
2023-02-24T03:13:18.246Z,101260.63
2023-02-24T03:15:55.141Z,101253.91
2023-02-24T03:18:41.262Z,101255.59
2023-02-24T03:21:20.438Z,101235.41
2023-02-24T03:23:53.822Z,101238.03
2023-02-24T03:26:47.786Z,101227.13
2023-02-24T03:29:41.536Z,101232.47
2023-02-24T03:32:58.926Z,101238.38
2023-02-24T03:35:45.048Z,101223.56
2023-02-24T03:38:26.736Z,101234.59
2023-02-24T03:41:02.190Z,101230.09
2023-02-24T03:43:46.875Z,101227.25
2023-02-24T03:46:20.792Z,101227.97
2023-02-24T03:48:57.970Z,101215.63
2023-02-24T03:52:00.135Z,101206.28
2023-02-24T03:55:09.631Z,101202.34
2023-02-24T03:58:09.932Z,101199.88
2023-02-24T04:01:02.864Z,101193.59
2023-02-24T04:03:38.945Z,101189.19
2023-02-24T04:06:22.248Z,101188.03
2023-02-24T04:09:09.943Z,101186.38
2023-02-24T04:11:40.316Z,101182.81
2023-02-24T04:18:10.296Z,101179.50
2023-02-24T04:21:13.413Z,101172.72
2023-02-24T04:23:45.130Z,101183.03
2023-02-24T04:26:16.005Z,101170.00
2023-02-24T04:28:48.707Z,101157.81
2023-02-24T04:31:22.368Z,101157.69
2023-02-24T04:33:53.492Z,101156.03
2023-02-24T04:36:24.967Z,101154.47
2023-02-24T04:44:52.765Z,101132.69
2023-02-24T04:47:20.018Z,101116.94
2023-02-24T04:49:46.699Z,101128.66
2023-02-24T04:52:17.354Z,101134.38
2023-02-24T04:57:40.666Z,101130.31
2023-02-24T05:00:44.498Z,101135.09
2023-02-24T05:03:15.886Z,101126.41
2023-02-24T05:05:56.101Z,101125.34
2023-02-24T05:08:38.722Z,101122.72
2023-02-24T05:11:07.130Z,101098.00
2023-02-24T05:13:34.058Z,101118.13
2023-02-24T05:16:37.878Z,101117.41
2023-02-24T05:19:26.171Z,101110.78
2023-02-24T05:21:53.309Z,101108.78
2023-02-24T05:24:20.057Z,101116.72
2023-02-24T05:27:02.200Z,101113.28
2023-02-24T05:29:37.710Z,101103.31
2023-02-24T05:32:10.299Z,101088.66
2023-02-24T05:34:46.658Z,101089.78
2023-02-24T05:37:26.937Z,101087.91
2023-02-24T05:40:13.959Z,101084.34
2023-02-24T05:42:45.451Z,101077.09
2023-02-24T05:45:12.536Z,101074.16
2023-02-24T05:47:40.425Z,101071.44
2023-02-24T05:50:26.505Z,101058.50
2023-02-24T05:52:53.502Z,101060.63
2023-02-24T05:55:28.240Z,101064.53
2023-02-24T05:57:56.734Z,101054.09
2023-02-24T06:00:25.982Z,101052.75
2023-02-24T06:02:55.097Z,101051.00
2023-02-24T06:05:28.024Z,101046.75
2023-02-24T06:08:14.856Z,101045.91
2023-02-24T06:10:41.666Z,101040.44
2023-02-24T06:13:13.648Z,101034.03
2023-02-24T06:15:41.982Z,101019.66
2023-02-24T06:18:34.097Z,101022.47
2023-02-24T06:21:03.183Z,100999.59
2023-02-24T06:23:48.483Z,100995.25
2023-02-24T06:26:29.910Z,100992.00
2023-02-24T06:28:58.769Z,100985.81
2023-02-24T06:34:39.293Z,100989.97
2023-02-24T06:37:10.283Z,100995.44
2023-02-24T06:39:42.371Z,100992.41
2023-02-24T06:42:10.957Z,100999.47
2023-02-24T06:44:39.288Z,101017.72
2023-02-24T06:47:10.381Z,101005.28
2023-02-24T06:49:55.095Z,100998.69
2023-02-24T06:52:31.253Z,101011.72
2023-02-24T06:55:26.275Z,101002.94
2023-02-24T07:00:57.388Z,101004.41
2023-02-24T07:06:24.238Z,100999.63
2023-02-24T07:09:14.982Z,100985.16
2023-02-24T07:11:46.615Z,100984.13
2023-02-24T07:14:33.194Z,100975.31
2023-02-24T07:17:00.620Z,100970.94
2023-02-24T07:19:30.009Z,100982.28
2023-02-24T07:22:02.231Z,100979.00
2023-02-24T07:24:41.593Z,100985.09
2023-02-24T07:27:22.826Z,100978.22
2023-02-24T07:29:54.016Z,100977.69
2023-02-24T07:32:25.671Z,100971.38
2023-02-24T07:34:53.321Z,100973.03
2023-02-24T07:37:20.753Z,100965.59
2023-02-24T07:39:47.607Z,100963.53
2023-02-24T07:42:15.674Z,100963.22
2023-02-24T07:44:44.716Z,100968.03
2023-02-24T07:47:11.890Z,100965.94
2023-02-24T07:49:42.607Z,100969.34
2023-02-24T07:52:11.664Z,100963.28
2023-02-24T07:55:03.912Z,100966.53
2023-02-24T07:57:36.210Z,100958.09
2023-02-24T08:00:28.321Z,100962.63
2023-02-24T08:03:00.324Z,100964.91
2023-02-24T08:05:29.895Z,100965.16
2023-02-24T08:07:59.938Z,100963.91
2023-02-24T08:10:41.038Z,100965.09
2023-02-24T08:16:14.289Z,100945.97
2023-02-24T08:21:34.922Z,100947.56
2023-02-24T08:24:30.222Z,100956.00
2023-02-24T08:27:31.613Z,100954.91
2023-02-24T08:33:41.639Z,100953.03
2023-02-24T08:36:24.359Z,100931.03
2023-02-24T08:39:05.358Z,100945.75
2023-02-24T08:44:52.311Z,100948.84
2023-02-24T08:47:30.214Z,100941.66
2023-02-24T08:50:30.433Z,100945.16
2023-02-24T08:53:03.094Z,100941.31
2023-02-24T08:55:40.087Z,100945.09
2023-02-24T08:58:17.538Z,100949.25
2023-02-24T09:00:50.126Z,100956.47
2023-02-24T09:04:01.881Z,100979.25
2023-02-24T09:07:25.975Z,100984.56
2023-02-24T09:10:33.947Z,100958.53
2023-02-24T09:13:25.103Z,100967.66
2023-02-24T09:15:51.940Z,100986.16
2023-02-24T09:18:18.643Z,100977.44
2023-02-24T09:21:31.064Z,100977.25
2023-02-24T09:24:00.337Z,100985.19
2023-02-24T09:26:31.548Z,100994.09
2023-02-24T09:29:38.835Z,101003.44
2023-02-24T09:32:13.746Z,101001.31
2023-02-24T09:34:47.562Z,101022.91
2023-02-24T09:37:31.708Z,101018.94
2023-02-24T09:42:58.657Z,101017.59
2023-02-24T09:45:38.745Z,101034.56
2023-02-24T09:49:07.087Z,101003.25
2023-02-24T09:52:00.643Z,101007.91
2023-02-24T09:58:20.978Z,100983.53
2023-02-24T10:01:54.992Z,100961.97
2023-02-24T10:05:27.636Z,100947.47
2023-02-24T10:11:00.991Z,100928.91
2023-02-24T10:13:32.707Z,100927.72
2023-02-24T10:19:15.236Z,100951.44
2023-02-24T10:22:00.348Z,100944.81
2023-02-24T10:24:47.400Z,100952.88
2023-02-24T10:27:24.119Z,100955.31
2023-02-24T10:30:10.909Z,100956.00
2023-02-24T10:37:29.893Z,100961.78
2023-02-24T10:42:49.949Z,100958.19
2023-02-24T10:45:23.842Z,100958.03
2023-02-24T10:47:56.663Z,100945.50
2023-02-24T10:50:55.313Z,100938.94
2023-02-24T10:53:50.388Z,100928.56
2023-02-24T10:56:42.022Z,100925.94
2023-02-24T10:59:40.853Z,100926.25
2023-02-24T11:02:29.695Z,100914.41
2023-02-24T11:05:38.526Z,100919.84
2023-02-24T11:08:26.244Z,100910.44
2023-02-24T11:11:07.112Z,100904.66
2023-02-24T11:13:53.532Z,100898.09
2023-02-24T11:16:38.824Z,100871.13
2023-02-24T11:19:07.328Z,100870.63
2023-02-24T11:21:34.047Z,100849.09
2023-02-24T11:24:03.027Z,100853.00
2023-02-24T11:26:41.730Z,100842.78
2023-02-24T11:29:15.797Z,100816.31
2023-02-24T11:32:08.891Z,100820.28
2023-02-24T11:35:09.464Z,100813.84
2023-02-24T11:37:43.106Z,100806.28
2023-02-24T11:43:35.563Z,100791.00
2023-02-24T11:46:29.189Z,100776.19
2023-02-24T11:49:19.759Z,100761.09
2023-02-24T11:51:47.394Z,100739.53
2023-02-24T11:54:18.525Z,100745.78
2023-02-24T11:56:59.221Z,100728.81
2023-02-24T11:59:58.057Z,100727.34
2023-02-24T12:02:53.331Z,100722.56
2023-02-24T12:05:37.106Z,100728.66
2023-02-24T12:12:13.557Z,100710.72
2023-02-24T12:14:47.908Z,100674.72
2023-02-24T12:17:21.210Z,100692.78
2023-02-24T12:20:41.808Z,100689.63
2023-02-24T12:27:12.918Z,100655.00
2023-02-24T12:30:28.810Z,100659.88
2023-02-24T12:33:37.528Z,100643.59
2023-02-24T12:36:38.140Z,100662.03
2023-02-24T12:39:54.450Z,100635.78
2023-02-24T12:42:40.310Z,100635.38
2023-02-24T12:45:22.263Z,100630.78
2023-02-24T12:48:33.454Z,100625.34
2023-02-24T12:51:22.703Z,100613.22
2023-02-24T12:54:15.365Z,100622.81
2023-02-24T12:57:07.239Z,100619.84
2023-02-24T12:59:44.072Z,100613.66
2023-02-24T13:02:23.008Z,100612.69
2023-02-24T13:05:19.487Z,100601.81
2023-02-24T13:08:31.213Z,100600.13
2023-02-24T13:11:07.358Z,100598.50
2023-02-24T13:13:58.552Z,100596.19
2023-02-24T13:16:31.287Z,100589.78
2023-02-24T13:19:27.818Z,100584.81
2023-02-24T13:22:01.332Z,100576.06
2023-02-24T13:24:34.133Z,100551.47
2023-02-24T13:27:17.364Z,100567.28
2023-02-24T13:29:52.096Z,100566.97
2023-02-24T13:32:45.066Z,100565.28
2023-02-24T13:35:20.084Z,100559.25
2023-02-24T13:38:16.411Z,100555.88
2023-02-24T13:41:06.409Z,100548.03
2023-02-24T13:44:11.013Z,100545.03
2023-02-24T13:47:25.566Z,100524.50
2023-02-24T13:50:37.552Z,100528.47
2023-02-24T13:54:01.026Z,100523.50
2023-02-24T14:00:13.022Z,100511.22
2023-02-24T14:02:44.389Z,100524.94
2023-02-24T14:05:45.650Z,100530.41
2023-02-24T14:08:28.138Z,100493.28
2023-02-24T14:11:22.063Z,100504.13
2023-02-24T14:14:01.535Z,100515.25
2023-02-24T14:16:56.947Z,100526.91
2023-02-24T14:19:30.593Z,100540.38
2023-02-24T14:22:05.199Z,100555.47
2023-02-24T14:24:43.674Z,100546.75
2023-02-24T14:27:32.339Z,100567.06
2023-02-24T14:29:59.272Z,100559.34
2023-02-24T14:32:29.416Z,100573.22
2023-02-24T14:35:00.437Z,100577.66
2023-02-24T14:37:33.148Z,100571.56
2023-02-24T14:40:09.066Z,100569.66
2023-02-24T14:42:42.013Z,100595.22
2023-02-24T14:45:25.510Z,100595.13
2023-02-24T14:48:24.476Z,100614.25
2023-02-24T14:50:55.957Z,100609.59
2023-02-24T14:53:28.633Z,100617.09
2023-02-24T14:56:10.405Z,100616.22
2023-02-24T14:58:51.740Z,100628.66
2023-02-24T15:01:24.290Z,100632.53
2023-02-24T15:04:12.440Z,100629.63
2023-02-24T15:06:43.790Z,100631.88
2023-02-24T15:09:26.957Z,100629.00
2023-02-24T15:14:49.030Z,100608.53
2023-02-24T15:17:42.502Z,100640.09
2023-02-24T15:21:04.822Z,100635.19
2023-02-24T15:27:19.783Z,100627.16
2023-02-24T15:30:02.571Z,100648.31
2023-02-24T15:32:32.467Z,100633.13
2023-02-24T15:35:00.000Z,100638.84
2023-02-24T15:38:03.717Z,100658.25
2023-02-24T15:43:30.559Z,100652.63
2023-02-24T15:46:38.288Z,100663.88
2023-02-24T15:49:29.393Z,100673.47
2023-02-24T15:51:59.986Z,100655.56
2023-02-24T15:54:30.450Z,100668.81
2023-02-24T15:57:26.627Z,100658.66
2023-02-24T16:00:02.142Z,100677.25
2023-02-24T16:02:54.197Z,100677.66
2023-02-24T16:08:30.522Z,100658.88
2023-02-24T16:11:59.999Z,100632.69
2023-02-24T16:21:09.947Z,100599.53
2023-02-24T16:23:56.944Z,100581.47
2023-02-24T16:26:38.347Z,100562.28
2023-02-24T16:29:11.695Z,100558.81
2023-02-24T16:36:34.568Z,100556.03
2023-02-24T16:46:51.619Z,100467.56
2023-02-24T16:49:20.688Z,100493.47
2023-02-24T16:54:55.574Z,100463.94
2023-02-24T16:57:25.702Z,100456.25
2023-02-24T17:03:19.787Z,100445.75
2023-02-24T17:05:47.085Z,100453.63
2023-02-24T17:08:15.575Z,100446.06
2023-02-24T17:10:57.435Z,100419.50
2023-02-24T17:20:08.193Z,100416.88
2023-02-24T17:22:36.987Z,100401.97
2023-02-24T17:25:07.282Z,100408.03
2023-02-24T17:27:34.167Z,100396.22
2023-02-24T17:30:00.686Z,100405.22
2023-02-24T17:35:13.622Z,100401.31
2023-02-24T17:37:43.364Z,100369.31
2023-02-24T17:40:10.870Z,100393.59
2023-02-24T17:42:37.550Z,100385.06
2023-02-24T17:45:05.879Z,100377.34
2023-02-24T17:47:32.975Z,100372.13
2023-02-24T17:49:59.537Z,100363.59
2023-02-24T17:52:26.760Z,100363.91
2023-02-24T17:55:01.942Z,100365.53
2023-02-24T17:57:29.610Z,100372.09
2023-02-24T17:59:56.348Z,100368.97
2023-02-24T18:02:24.338Z,100371.44
2023-02-24T18:04:51.487Z,100363.06
2023-02-24T18:07:19.297Z,100365.88
2023-02-24T18:09:52.276Z,100345.06
2023-02-24T18:12:21.016Z,100354.22
2023-02-24T18:15:55.474Z,100333.75
2023-02-24T18:18:22.084Z,100357.69
2023-02-24T18:23:57.184Z,100334.03
2023-02-24T18:29:23.253Z,100346.97
2023-02-24T18:31:50.009Z,100343.56
2023-02-24T18:34:16.660Z,100351.44
2023-02-24T18:36:43.233Z,100334.06
2023-02-24T18:39:10.167Z,100334.06
2023-02-24T18:41:36.829Z,100332.59
2023-02-24T18:44:04.274Z,100327.16
2023-02-24T18:46:30.940Z,100330.91
2023-02-24T18:48:57.757Z,100327.66
2023-02-24T18:51:44.477Z,100332.75
2023-02-24T18:54:11.390Z,100324.38
2023-02-24T18:56:38.080Z,100328.13
2023-02-24T18:59:04.701Z,100333.53
2023-02-24T19:01:34.336Z,100338.25
2023-02-24T19:04:01.931Z,100328.44
2023-02-24T19:06:50.793Z,100291.09
2023-02-24T19:09:21.648Z,100295.53
2023-02-24T19:11:49.714Z,100301.63
2023-02-24T19:14:16.941Z,100299.63
2023-02-24T19:16:43.972Z,100292.09
2023-02-24T19:19:14.953Z,100299.28
2023-02-24T19:21:50.706Z,100282.28
2023-02-24T19:24:17.570Z,100292.41
2023-02-24T19:26:46.010Z,100288.50
2023-02-24T19:29:12.779Z,100279.81
2023-02-24T19:31:40.186Z,100274.41
2023-02-24T19:34:10.664Z,100279.00
2023-02-24T19:36:38.056Z,100266.06
2023-02-24T19:39:06.034Z,100272.28
2023-02-24T19:41:32.796Z,100277.69
2023-02-24T19:47:12.375Z,100264.59
2023-02-24T19:49:39.128Z,100276.88
2023-02-24T19:52:09.152Z,100257.53
2023-02-24T19:54:36.406Z,100269.34
2023-02-24T19:57:03.448Z,100263.75
2023-02-24T19:59:51.807Z,100253.41
2023-02-24T20:02:18.693Z,100277.31
2023-02-24T20:04:48.581Z,100276.31
2023-02-24T20:07:36.972Z,100284.81
2023-02-24T20:10:04.098Z,100293.44
2023-02-24T20:12:30.703Z,100284.91
2023-02-24T20:18:03.436Z,100286.88
2023-02-24T20:20:30.908Z,100283.09
2023-02-24T20:22:57.502Z,100297.00
2023-02-24T20:25:24.404Z,100299.19
2023-02-24T20:27:51.009Z,100299.63
2023-02-24T20:30:17.835Z,100315.09
2023-02-24T20:32:44.565Z,100305.22
2023-02-24T20:35:11.305Z,100286.22
2023-02-24T20:37:37.913Z,100268.56
2023-02-24T20:40:05.499Z,100278.22
2023-02-24T20:42:32.041Z,100259.53
2023-02-24T20:44:58.569Z,100269.66
2023-02-24T20:47:25.129Z,100274.50
2023-02-24T20:52:38.616Z,100278.78
2023-02-24T20:55:05.477Z,100269.88
2023-02-24T20:57:32.146Z,100270.91
2023-02-24T21:00:03.647Z,100266.03
2023-02-24T21:02:30.469Z,100256.75
2023-02-24T21:04:57.114Z,100236.34
2023-02-24T21:11:10.712Z,100227.97
2023-02-24T21:13:44.789Z,100223.25
2023-02-24T21:14:03.325Z,100232.28
2023-02-24T21:16:12.516Z,100191.66
2023-02-24T21:18:41.374Z,100172.66
2023-02-24T21:24:33.732Z,100152.69
2023-02-24T21:27:00.304Z,100150.19
2023-02-24T21:29:26.915Z,100155.91
2023-02-24T21:32:53.315Z,100153.63
2023-02-24T21:35:19.994Z,100134.31
2023-02-24T21:37:46.610Z,100155.25
2023-02-24T21:40:13.343Z,100136.59
2023-02-24T21:42:43.191Z,100156.66
2023-02-24T21:45:13.983Z,100151.56
2023-02-24T21:47:41.875Z,100154.31
2023-02-24T21:50:12.044Z,100155.94
2023-02-24T21:52:40.268Z,100149.75
2023-02-24T21:55:08.896Z,100148.44
2023-02-24T21:57:45.885Z,100152.09
2023-02-24T22:00:20.855Z,100148.81
2023-02-24T22:02:49.976Z,100157.00
2023-02-24T22:05:28.277Z,100143.28
2023-02-24T22:11:06.985Z,100132.66
2023-02-24T22:13:33.617Z,100141.31
2023-02-24T22:16:02.176Z,100144.94
2023-02-24T22:18:29.209Z,100144.81
2023-02-24T22:20:55.910Z,100159.72
2023-02-24T22:23:22.758Z,100144.50
2023-02-24T22:25:49.311Z,100139.28
2023-02-24T22:28:15.814Z,100132.25
2023-02-24T22:30:42.413Z,100119.66
2023-02-24T22:33:09.047Z,100117.66
2023-02-24T22:35:36.718Z,100120.78
2023-02-24T22:38:03.362Z,100112.94
2023-02-24T22:40:29.904Z,100117.16
2023-02-24T22:42:56.432Z,100100.78
2023-02-24T22:45:23.140Z,100092.63
2023-02-24T22:47:49.940Z,100090.50
2023-02-24T22:50:16.824Z,100097.66
2023-02-24T22:52:43.351Z,100097.81
2023-02-24T22:55:10.487Z,100094.38
2023-02-24T22:57:37.118Z,100101.69
2023-02-24T23:00:09.617Z,100106.06
2023-02-24T23:02:37.140Z,100129.44
2023-02-24T23:05:03.994Z,100130.66
2023-02-24T23:07:30.582Z,100121.53
2023-02-24T23:09:57.209Z,100116.97
2023-02-24T23:12:23.728Z,100096.38
2023-02-24T23:14:50.269Z,100094.88
2023-02-24T23:17:16.875Z,100101.72
2023-02-24T23:19:43.381Z,100088.94
2023-02-24T23:22:09.911Z,100097.69
2023-02-24T23:24:36.405Z,100110.03
2023-02-24T23:27:03.295Z,100125.66
2023-02-24T23:29:30.880Z,100123.75
2023-02-24T23:31:58.736Z,100124.81
2023-02-24T23:34:25.487Z,100139.75
2023-02-24T23:36:52.175Z,100139.31
2023-02-24T23:39:23.049Z,100140.03
2023-02-24T23:41:50.154Z,100121.78
2023-02-24T23:44:16.696Z,100153.06
2023-02-24T23:46:43.214Z,100148.19
2023-02-24T23:49:09.916Z,100160.47
2023-02-24T23:51:47.728Z,100162.91
2023-02-24T23:54:18.128Z,100168.78
2023-02-24T23:56:45.390Z,100159.25
2023-02-24T23:59:11.944Z,100175.25
